Time;durP1;ratioP1;P1;durP2;ratioP2;P2;SDS_P1;SDS_P2;PMS_P1;PMS_P2;Temp;Humidity;BMP_temperature;BMP_pressure;BME280_temperature;BME280_humidity;BME280_pressure;Samples;Min_cycle;Max_cycle;Signal;HPM_P1;HPM_P2
2022/04/03 00:02:21;;;;;;;;;;;2.10;76.30;;;;;;6274712;22;19891;-85
2022/04/03 00:04:47;;;;;;;;;;;2.10;76.60;;;;;;6278428;22;19927;-87
2022/04/03 00:07:15;;;;;;;;;;;2.10;76.80;;;;;;6278309;22;19892;-87
2022/04/03 00:09:42;;;;;;;;;;;2.00;77.10;;;;;;6244034;22;19953;-85
2022/04/03 00:12:08;;;;;;;;;;;1.90;77.20;;;;;;6250987;22;20310;-86
2022/04/03 00:14:36;;;;;;;;;;;1.90;77.40;;;;;;6250850;22;19909;-88
2022/04/03 00:17:04;;;;;;;;;;;1.90;77.70;;;;;;6250305;22;19911;-85
2022/04/03 00:19:30;;;;;;;;;;;1.80;77.80;;;;;;6250357;22;19957;-85
2022/04/03 00:22:13;;;;;;;;;;;1.80;78.70;;;;;;6250438;22;19907;-86
2022/04/03 00:24:39;;;;;;;;;;;1.80;78.30;;;;;;6225011;22;20241;-86
2022/04/03 00:27:07;;;;;;;;;;;1.70;78.50;;;;;;6250316;22;19910;-85
2022/04/03 00:29:41;;;;;;;;;;;1.70;78.60;;;;;;6250008;22;19907;-86
2022/04/03 00:32:07;;;;;;;;;;;1.70;78.70;;;;;;6249940;22;19981;-85
2022/04/03 00:34:35;;;;;;;;;;;1.70;78.90;;;;;;6249707;22;19907;-85
2022/04/03 00:37:00;;;;;;;;;;;1.70;78.90;;;;;;6250002;22;20080;-86
2022/04/03 00:39:26;;;;;;;;;;;1.70;79.00;;;;;;6250145;22;20258;-85
2022/04/03 00:41:52;;;;;;;;;;;1.70;79.00;;;;;;6250001;22;19949;-85
2022/04/03 00:44:18;;;;;;;;;;;1.70;79.10;;;;;;6249276;22;19919;-86
2022/04/03 00:46:44;;;;;;;;;;;1.60;79.30;;;;;;6249648;22;19910;-86
2022/04/03 00:49:20;;;;;;;;;;;1.60;79.40;;;;;;6249669;22;19910;-85
2022/04/03 00:51:51;;;;;;;;;;;1.60;79.50;;;;;;6248889;22;19986;-85
2022/04/03 00:54:19;;;;;;;;;;;1.60;79.70;;;;;;6224729;22;19934;-85
2022/04/03 00:57:03;;;;;;;;;;;;;;;;;;;;;
2022/04/03 00:59:34;;;;;;;;;;;1.60;79.70;;;;;;6276892;22;19993;-85
2022/04/03 01:02:00;;;;;;;;;;;1.50;79.60;;;;;;6251018;22;19911;-86
2022/04/03 01:04:25;;;;;;;;;;;1.60;79.70;;;;;;6251694;22;19907;-85
2022/04/03 01:06:51;;;;;;;;;;;1.50;79.70;;;;;;6252441;22;19926;-85
2022/04/03 01:09:16;;;;;;;;;;;1.60;80.00;;;;;;6251680;22;20301;-86
2022/04/03 01:11:43;;;;;;;;;;;1.50;80.00;;;;;;6252040;22;19903;-86
2022/04/03 01:14:29;;;;;;;;;;;1.50;80.10;;;;;;6252807;22;19908;-86
2022/04/03 01:16:57;;;;;;;;;;;1.50;80.10;;;;;;6252664;22;20317;-85
2022/04/03 01:19:22;;;;;;;;;;;1.50;80.30;;;;;;6252936;22;20317;-85
2022/04/03 01:21:48;;;;;;;;;;;1.50;80.40;;;;;;6256884;22;19910;-86
2022/04/03 01:24:19;;;;;;;;;;;1.50;80.40;;;;;;6279893;22;19892;-84
2022/04/03 01:26:48;;;;;;;;;;;1.50;80.60;;;;;;6279661;22;19898;-89
2022/04/03 01:29:15;;;;;;;;;;;1.40;80.70;;;;;;6279158;22;19907;-85
2022/04/03 01:31:43;;;;;;;;;;;1.40;81.00;;;;;;6284177;22;19907;-89
2022/04/03 01:34:09;;;;;;;;;;;1.40;81.20;;;;;;6251541;22;19985;-85
2022/04/03 01:36:35;;;;;;;;;;;1.30;81.30;;;;;;6252074;22;19957;-85
2022/04/03 01:39:01;;;;;;;;;;;1.30;81.50;;;;;;6251260;22;20343;-85
2022/04/03 01:41:29;;;;;;;;;;;1.30;81.80;;;;;;6251093;22;19925;-85
2022/04/03 01:43:57;;;;;;;;;;;1.20;82.00;;;;;;6250871;22;19915;-85
2022/04/03 01:46:25;;;;;;;;;;;1.30;82.30;;;;;;6251963;22;19907;-85
2022/04/03 01:48:50;;;;;;;;;;;1.20;82.40;;;;;;6251220;22;19903;-86
2022/04/03 01:51:16;;;;;;;;;;;1.20;82.60;;;;;;6251742;22;19910;-85
2022/04/03 01:53:41;;;;;;;;;;;1.20;82.90;;;;;;6251478;22;19985;-85
2022/04/03 01:56:07;;;;;;;;;;;1.20;83.10;;;;;;6226469;22;19914;-86
2022/04/03 01:58:33;;;;;;;;;;;1.10;83.10;;;;;;6251477;22;20032;-85
2022/04/03 02:00:59;;;;;;;;;;;1.10;83.30;;;;;;6251146;22;19914;-85
2022/04/03 02:03:25;;;;;;;;;;;1.10;83.40;;;;;;6251069;22;19903;-84
2022/04/03 02:05:51;;;;;;;;;;;1.00;83.50;;;;;;6250465;22;19904;-85
2022/04/03 02:08:16;;;;;;;;;;;1.00;83.70;;;;;;6251471;22;19911;-85
2022/04/03 02:10:42;;;;;;;;;;;1.00;83.80;;;;;;6225452;22;19907;-85
2022/04/03 02:13:08;;;;;;;;;;;1.00;83.90;;;;;;6225246;22;20279;-86
2022/04/03 02:15:34;;;;;;;;;;;0.90;83.90;;;;;;6251410;22;19904;-85
2022/04/03 02:17:59;;;;;;;;;;;0.90;83.90;;;;;;6250636;22;19919;-85
2022/04/03 02:20:25;;;;;;;;;;;0.90;83.80;;;;;;6251577;22;19945;-84
2022/04/03 02:22:51;;;;;;;;;;;1.00;83.80;;;;;;6251195;22;19949;-85
2022/04/03 02:25:16;;;;;;;;;;;1.00;83.70;;;;;;6226114;22;19960;-85
2022/04/03 02:27:44;;;;;;;;;;;1.00;83.60;;;;;;6226556;22;19946;-85
2022/04/03 02:30:10;;;;;;;;;;;1.00;83.70;;;;;;6251041;22;19911;-85
2022/04/03 02:32:36;;;;;;;;;;;1.00;83.70;;;;;;6251906;22;20228;-86
2022/04/03 02:35:03;;;;;;;;;;;1.00;83.80;;;;;;6251637;22;19981;-85
2022/04/03 02:37:29;;;;;;;;;;;1.00;84.00;;;;;;6251537;22;19965;-85
2022/04/03 02:39:55;;;;;;;;;;;0.90;84.00;;;;;;6251873;22;19907;-85
2022/04/03 02:42:20;;;;;;;;;;;0.90;84.10;;;;;;6233956;22;19891;-84
2022/04/03 02:44:46;;;;;;;;;;;0.90;84.20;;;;;;6253539;22;19925;-86
2022/04/03 02:47:12;;;;;;;;;;;0.90;84.30;;;;;;6304681;22;19893;-85
2022/04/03 02:49:37;;;;;;;;;;;0.80;84.40;;;;;;6253877;22;19943;-84
2022/04/03 02:52:03;;;;;;;;;;;0.80;84.50;;;;;;6233358;22;19907;-85
2022/04/03 02:54:31;;;;;;;;;;;0.80;84.60;;;;;;6252398;22;19927;-85
2022/04/03 02:56:57;;;;;;;;;;;0.80;84.70;;;;;;6226368;22;19954;-85
2022/04/03 02:59:23;;;;;;;;;;;0.80;84.80;;;;;;6225868;22;20261;-86
2022/04/03 03:01:48;;;;;;;;;;;0.80;85.00;;;;;;6251137;22;19938;-85
2022/04/03 03:04:14;;;;;;;;;;;0.80;85.10;;;;;;6250745;22;19907;-85
2022/04/03 03:06:40;;;;;;;;;;;0.80;85.20;;;;;;6251448;22;19907;-85
2022/04/03 03:09:06;;;;;;;;;;;0.80;85.50;;;;;;6250064;22;20481;-86
2022/04/03 03:11:31;;;;;;;;;;;0.80;85.60;;;;;;6250839;22;20233;-85
2022/04/03 03:13:59;;;;;;;;;;;0.90;85.80;;;;;;6250509;22;20314;-85
2022/04/03 03:16:27;;;;;;;;;;;0.90;85.90;;;;;;6250526;22;19986;-85
2022/04/03 03:18:55;;;;;;;;;;;0.80;86.10;;;;;;6250214;22;19907;-85
2022/04/03 03:21:21;;;;;;;;;;;0.80;86.20;;;;;;6224403;22;19942;-85
2022/04/03 03:23:46;;;;;;;;;;;0.80;86.40;;;;;;6250382;22;20230;-84
2022/04/03 03:26:15;;;;;;;;;;;0.80;86.60;;;;;;6250703;22;20581;-84
2022/04/03 03:28:40;;;;;;;;;;;0.80;86.70;;;;;;6250118;22;19993;-85
2022/04/03 03:31:06;;;;;;;;;;;0.80;86.80;;;;;;6250596;22;19935;-85
2022/04/03 03:33:31;;;;;;;;;;;0.80;86.90;;;;;;6250163;22;20262;-85
2022/04/03 03:36:09;;;;;;;;;;;0.80;87.00;;;;;;6250109;22;19917;-85
2022/04/03 03:38:35;;;;;;;;;;;0.80;87.10;;;;;;6250913;22;19907;-85
2022/04/03 03:41:01;;;;;;;;;;;0.80;87.30;;;;;;6249803;22;19914;-85
2022/04/03 03:43:26;;;;;;;;;;;0.80;87.40;;;;;;6250085;22;19903;-85
2022/04/03 03:45:52;;;;;;;;;;;0.80;87.50;;;;;;6250467;22;19903;-84
2022/04/03 03:48:18;;;;;;;;;;;0.80;87.60;;;;;;6250168;22;19910;-85
2022/04/03 03:50:43;;;;;;;;;;;0.80;87.70;;;;;;6249981;22;19911;-85
2022/04/03 03:53:09;;;;;;;;;;;0.80;87.70;;;;;;6250107;22;19990;-85
2022/04/03 03:55:34;;;;;;;;;;;0.80;87.80;;;;;;6250979;22;19903;-85
2022/04/03 03:58:00;;;;;;;;;;;0.90;88.00;;;;;;6250787;22;19954;-85
2022/04/03 04:00:26;;;;;;;;;;;0.90;88.20;;;;;;6251301;22;19904;-85
2022/04/03 04:02:51;;;;;;;;;;;0.90;88.30;;;;;;6239233;22;19911;-85
2022/04/03 04:05:17;;;;;;;;;;;0.80;88.20;;;;;;6278411;22;19913;-85
2022/04/03 04:07:47;;;;;;;;;;;0.90;88.30;;;;;;6278681;22;19907;-85
2022/04/03 04:10:16;;;;;;;;;;;0.80;88.40;;;;;;6273284;22;20226;-85
2022/04/03 04:12:42;;;;;;;;;;;0.90;88.50;;;;;;6250806;22;19935;-85
2022/04/03 04:15:08;;;;;;;;;;;0.90;88.70;;;;;;6250337;22;20309;-85
2022/04/03 04:17:38;;;;;;;;;;;0.90;88.80;;;;;;6250568;22;20377;-85
2022/04/03 04:20:10;;;;;;;;;;;0.90;88.90;;;;;;6249473;22;19982;-85
2022/04/03 04:22:36;;;;;;;;;;;0.90;89.00;;;;;;6250206;22;19903;-85
2022/04/03 04:25:06;;;;;;;;;;;0.90;89.00;;;;;;6249839;22;19904;-86
2022/04/03 04:27:31;;;;;;;;;;;0.90;89.10;;;;;;6250895;22;20345;-85
2022/04/03 04:29:57;;;;;;;;;;;0.90;89.30;;;;;;6250140;22;19978;-85
2022/04/03 04:32:23;;;;;;;;;;;0.90;89.30;;;;;;6249990;22;19903;-85
2022/04/03 04:34:49;;;;;;;;;;;0.90;89.40;;;;;;6250218;22;19907;-85
2022/04/03 04:37:15;;;;;;;;;;;1.00;89.50;;;;;;6251446;22;19918;-85
2022/04/03 04:39:41;;;;;;;;;;;1.00;89.50;;;;;;6252801;22;19953;-85
2022/04/03 04:42:06;;;;;;;;;;;1.00;89.50;;;;;;6251935;22;19903;-85
2022/04/03 04:44:34;;;;;;;;;;;1.00;89.50;;;;;;6251691;22;19915;-85
2022/04/03 04:47:00;;;;;;;;;;;1.10;89.70;;;;;;6226849;22;19914;-87
2022/04/03 04:49:27;;;;;;;;;;;1.10;89.70;;;;;;6252427;22;20310;-85
2022/04/03 04:51:56;;;;;;;;;;;1.10;89.90;;;;;;6251553;22;19910;-85
2022/04/03 04:54:21;;;;;;;;;;;1.10;90.00;;;;;;6251907;22;20598;-85
2022/04/03 04:56:47;;;;;;;;;;;1.20;90.00;;;;;;6252150;22;19990;-85
2022/04/03 04:59:12;;;;;;;;;;;1.20;90.10;;;;;;6251662;22;19903;-85
2022/04/03 05:01:39;;;;;;;;;;;1.20;90.10;;;;;;6252243;22;19910;-85
2022/04/03 05:04:06;;;;;;;;;;;1.30;90.20;;;;;;6250980;22;19978;-85
2022/04/03 05:06:32;;;;;;;;;;;1.30;90.20;;;;;;6227592;22;19915;-85
2022/04/03 05:08:58;;;;;;;;;;;1.40;90.20;;;;;;6252344;22;19904;-85
2022/04/03 05:11:24;;;;;;;;;;;1.40;90.20;;;;;;6252158;22;19907;-85
2022/04/03 05:13:50;;;;;;;;;;;1.40;90.20;;;;;;6252041;22;20288;-86
2022/04/03 05:16:15;;;;;;;;;;;1.40;90.20;;;;;;6251733;22;19941;-85
2022/04/03 05:18:41;;;;;;;;;;;1.50;90.30;;;;;;6252207;22;19903;-85
2022/04/03 05:21:10;;;;;;;;;;;1.50;90.30;;;;;;6252293;22;19903;-85
2022/04/03 05:23:36;;;;;;;;;;;1.50;90.30;;;;;;6267067;22;19895;-86
2022/04/03 05:26:02;;;;;;;;;;;1.50;90.30;;;;;;6279345;22;19892;-85
2022/04/03 05:28:27;;;;;;;;;;;1.50;90.40;;;;;;6274483;22;19914;-86
2022/04/03 05:30:53;;;;;;;;;;;1.60;90.40;;;;;;6279373;22;19891;-81
2022/04/03 05:33:18;;;;;;;;;;;1.60;90.50;;;;;;6231934;22;19911;-84
2022/04/03 05:35:44;;;;;;;;;;;1.60;90.50;;;;;;6226408;22;19912;-86
2022/04/03 05:38:12;;;;;;;;;;;1.70;90.60;;;;;;6226159;22;20359;-86
2022/04/03 05:40:38;;;;;;;;;;;1.70;90.60;;;;;;6227602;22;20238;-85
2022/04/03 05:43:03;;;;;;;;;;;1.70;90.60;;;;;;6251972;22;19903;-85
2022/04/03 05:45:29;;;;;;;;;;;1.70;90.60;;;;;;6226315;22;19937;-85
2022/04/03 05:47:55;;;;;;;;;;;1.70;90.70;;;;;;6251348;22;20326;-85
2022/04/03 05:50:20;;;;;;;;;;;1.70;90.70;;;;;;6251023;22;20258;-85
2022/04/03 05:52:47;;;;;;;;;;;1.80;90.70;;;;;;6251489;22;19998;-85
2022/04/03 05:55:14;;;;;;;;;;;1.80;90.80;;;;;;6250924;22;19903;-85
2022/04/03 05:57:40;;;;;;;;;;;1.80;90.80;;;;;;6250801;22;20360;-85
2022/04/03 06:00:07;;;;;;;;;;;1.80;90.80;;;;;;6251659;22;20321;-86
2022/04/03 06:02:48;;;;;;;;;;;1.90;90.90;;;;;;6251006;22;19949;-86
2022/04/03 06:05:24;;;;;;;;;;;1.90;90.90;;;;;;6250761;22;19926;-86
2022/04/03 06:07:50;;;;;;;;;;;1.90;90.90;;;;;;6251485;22;19953;-85
2022/04/03 06:10:16;;;;;;;;;;;1.90;90.90;;;;;;6251148;22;19907;-85
2022/04/03 06:12:55;;;;;;;;;;;2.00;90.90;;;;;;6251739;22;19904;-85
2022/04/03 06:15:20;;;;;;;;;;;2.10;90.80;;;;;;6250486;22;19911;-85
2022/04/03 06:17:50;;;;;;;;;;;2.00;90.80;;;;;;6251221;22;19915;-86
2022/04/03 06:20:17;;;;;;;;;;;2.10;90.80;;;;;;6251654;22;19903;-85
2022/04/03 06:22:43;;;;;;;;;;;2.10;90.80;;;;;;6251568;22;19942;-86
2022/04/03 06:25:12;;;;;;;;;;;2.20;90.80;;;;;;6251608;22;19981;-86
2022/04/03 06:27:38;;;;;;;;;;;2.20;90.80;;;;;;6251871;22;19910;-86
2022/04/03 06:30:04;;;;;;;;;;;2.20;90.70;;;;;;6225297;22;19957;-86
2022/04/03 06:32:29;;;;;;;;;;;2.30;90.70;;;;;;6278361;22;19918;-86
2022/04/03 06:34:55;;;;;;;;;;;2.30;90.70;;;;;;6250915;22;19903;-86
2022/04/03 06:37:21;;;;;;;;;;;2.30;90.70;;;;;;6251109;22;19915;-85
2022/04/03 06:39:46;;;;;;;;;;;2.30;90.70;;;;;;6251302;22;19910;-85
2022/04/03 06:42:12;;;;;;;;;;;2.30;90.70;;;;;;6252153;22;19910;-86
2022/04/03 06:44:39;;;;;;;;;;;2.30;90.60;;;;;;6257951;22;19915;-86
2022/04/03 06:47:05;;;;;;;;;;;2.40;90.60;;;;;;6279663;22;19910;-86
2022/04/03 06:49:34;;;;;;;;;;;2.40;90.70;;;;;;6279014;22;19892;-86
2022/04/03 06:52:00;;;;;;;;;;;2.40;90.70;;;;;;6279104;22;19900;-85
2022/04/03 06:54:26;;;;;;;;;;;2.40;90.70;;;;;;6277275;22;19908;-86
2022/04/03 06:56:54;;;;;;;;;;;2.40;90.70;;;;;;6266022;22;20332;-86
2022/04/03 06:59:20;;;;;;;;;;;2.40;90.60;;;;;;6251136;22;19904;-86
2022/04/03 07:01:46;;;;;;;;;;;2.40;90.70;;;;;;6251049;22;20314;-86
2022/04/03 07:04:11;;;;;;;;;;;2.50;90.50;;;;;;6251237;22;19903;-86
2022/04/03 07:06:37;;;;;;;;;;;2.60;90.50;;;;;;6224719;22;19907;-86
2022/04/03 07:09:06;;;;;;;;;;;2.60;90.40;;;;;;6250572;22;19953;-86
2022/04/03 07:11:31;;;;;;;;;;;2.60;90.40;;;;;;6249884;22;19910;-85
2022/04/03 07:13:57;;;;;;;;;;;2.70;90.40;;;;;;6250917;22;19903;-86
2022/04/03 07:16:23;;;;;;;;;;;2.80;90.30;;;;;;6251235;22;19903;-85
2022/04/03 07:18:49;;;;;;;;;;;2.90;90.30;;;;;;6250854;22;20052;-86
2022/04/03 07:21:17;;;;;;;;;;;2.90;90.20;;;;;;6250681;22;19907;-87
2022/04/03 07:23:42;;;;;;;;;;;3.00;90.20;;;;;;6225532;22;19908;-87
2022/04/03 07:26:10;;;;;;;;;;;3.10;90.20;;;;;;6278657;22;19938;-86
2022/04/03 07:28:36;;;;;;;;;;;3.20;90.20;;;;;;6225949;22;19912;-86
2022/04/03 07:31:04;;;;;;;;;;;3.20;90.20;;;;;;6250602;22;20010;-87
2022/04/03 07:33:29;;;;;;;;;;;3.30;90.20;;;;;;6250437;22;19907;-86
2022/04/03 07:36:04;;;;;;;;;;;3.40;90.20;;;;;;6250605;22;20364;-87
2022/04/03 07:38:29;;;;;;;;;;;3.50;90.20;;;;;;6250530;22;19938;-86
2022/04/03 07:40:57;;;;;;;;;;;3.50;90.20;;;;;;6250225;22;20317;-86
2022/04/03 07:43:23;;;;;;;;;;;3.60;90.40;;;;;;6250536;22;19903;-85
2022/04/03 07:45:49;;;;;;;;;;;3.70;90.30;;;;;;6251234;22;19923;-86
2022/04/03 07:48:16;;;;;;;;;;;3.70;90.30;;;;;;6251068;22;19903;-85
2022/04/03 07:50:45;;;;;;;;;;;3.80;90.30;;;;;;6278258;22;19904;-90
2022/04/03 07:53:32;;;;;;;;;;;3.80;90.30;;;;;;6251362;22;19950;-88
2022/04/03 07:56:07;;;;;;;;;;;3.90;90.30;;;;;;6255998;22;19982;-87
2022/04/03 07:58:38;;;;;;;;;;;4.00;90.30;;;;;;6250775;22;19911;-88
2022/04/03 08:01:03;;;;;;;;;;;4.10;90.30;;;;;;6249805;22;19956;-85
2022/04/03 08:03:31;;;;;;;;;;;4.20;90.60;;;;;;6251893;22;20340;-87
2022/04/03 08:05:57;;;;;;;;;;;4.30;90.30;;;;;;6253598;22;19907;-86
2022/04/03 08:08:23;;;;;;;;;;;4.40;90.20;;;;;;6258232;22;19904;-88
2022/04/03 08:10:48;;;;;;;;;;;4.50;90.20;;;;;;6274880;22;19907;-85
2022/04/03 08:13:47;;;;;;;;;;;;;;;;;;;;;
2022/04/03 08:16:25;;;;;;;;;;;4.60;90.20;;;;;;6273078;22;19916;-86
2022/04/03 08:18:53;;;;;;;;;;;4.70;90.20;;;;;;6227989;22;19965;-86
2022/04/03 08:21:24;;;;;;;;;;;4.80;90.10;;;;;;6249916;22;19915;-86
2022/04/03 08:23:53;;;;;;;;;;;4.80;90.10;;;;;;6225626;22;20221;-85
2022/04/03 08:26:26;;;;;;;;;;;4.90;90.00;;;;;;6249700;22;19907;-87
2022/04/03 08:28:55;;;;;;;;;;;5.10;90.00;;;;;;6250310;22;19911;-87
2022/04/03 08:31:24;;;;;;;;;;;5.20;89.90;;;;;;6278231;22;20297;-87
2022/04/03 08:33:51;;;;;;;;;;;5.40;89.90;;;;;;6250138;22;19947;-87
2022/04/03 08:36:18;;;;;;;;;;;5.50;89.80;;;;;;6249813;22;19953;-88
2022/04/03 08:39:07;;;;;;;;;;;5.60;89.60;;;;;;6250950;22;19908;-88
2022/04/03 08:41:30;;;;;;;;;;;5.80;89.60;;;;;;6275979;22;20317;-89
2022/04/03 08:44:01;;;;;;;;;;;6.00;89.30;;;;;;6250147;22;19961;-88
2022/04/03 08:46:34;;;;;;;;;;;6.10;89.00;;;;;;6249409;22;19949;-88
2022/04/03 08:49:01;;;;;;;;;;;6.10;88.50;;;;;;6249918;22;20302;-87
2022/04/03 08:51:33;;;;;;;;;;;6.20;88.40;;;;;;6249927;22;19904;-85
2022/04/03 08:54:07;;;;;;;;;;;6.30;88.20;;;;;;6243696;22;19910;-86
2022/04/03 08:56:42;;;;;;;;;;;6.40;87.80;;;;;;6249553;22;20237;-88
2022/04/03 08:59:11;;;;;;;;;;;6.50;87.30;;;;;;6250311;22;19903;-86
2022/04/03 09:01:36;;;;;;;;;;;6.50;87.00;;;;;;6249347;22;19910;-86
2022/04/03 09:04:02;;;;;;;;;;;6.60;86.80;;;;;;6249362;22;19903;-86
2022/04/03 09:06:30;;;;;;;;;;;6.70;86.80;;;;;;6248992;22;19903;-86
2022/04/03 09:08:59;;;;;;;;;;;6.70;86.00;;;;;;6249684;22;19903;-86
2022/04/03 09:11:27;;;;;;;;;;;6.70;86.10;;;;;;6250012;22;19983;-86
2022/04/03 09:13:58;;;;;;;;;;;6.80;86.00;;;;;;6249407;22;19910;-86
2022/04/03 09:16:42;;;;;;;;;;;6.80;85.70;;;;;;6224907;22;19907;-86
2022/04/03 09:19:33;;;;;;;;;;;6.90;84.70;;;;;;6249775;22;19980;-89
2022/04/03 09:22:10;;;;;;;;;;;6.80;84.70;;;;;;6249255;22;19914;-87
2022/04/03 09:24:59;;;;;;;;;;;;;;;;;;;;;
2022/04/03 09:30:45;;;;;;;;;;;6.90;84.00;;;;;;6255366;22;20379;-86
2022/04/03 09:33:22;;;;;;;;;;;7.00;83.70;;;;;;6252629;22;19947;-87
2022/04/03 09:35:58;;;;;;;;;;;7.10;83.90;;;;;;6252911;22;19907;-85
2022/04/03 09:38:29;;;;;;;;;;;7.30;83.80;;;;;;6277066;22;19900;-85
2022/04/03 09:40:56;;;;;;;;;;;7.40;83.30;;;;;;6279698;22;19892;-86
2022/04/03 09:43:23;;;;;;;;;;;7.50;83.30;;;;;;6280308;22;19907;-84
2022/04/03 09:46:05;;;;;;;;;;;7.50;82.60;;;;;;6277927;22;19907;-87
2022/04/03 09:48:34;;;;;;;;;;;7.60;82.50;;;;;;6262892;22;19907;-86
2022/04/03 09:51:03;;;;;;;;;;;7.50;82.50;;;;;;6279025;22;20318;-85
2022/04/03 09:53:45;;;;;;;;;;;7.60;82.50;;;;;;6251762;22;19904;-85
2022/04/03 09:56:17;;;;;;;;;;;7.60;82.50;;;;;;6251183;22;19990;-85
2022/04/03 09:59:03;;;;;;;;;;;7.60;82.20;;;;;;6251208;22;19907;-86
2022/04/03 10:01:34;;;;;;;;;;;7.60;82.00;;;;;;6249757;22;19903;-85
2022/04/03 10:04:00;;;;;;;;;;;7.60;81.60;;;;;;6251080;22;19907;-85
2022/04/03 10:06:26;;;;;;;;;;;7.60;81.20;;;;;;6251105;22;20332;-84
2022/04/03 10:09:02;;;;;;;;;;;7.50;80.90;;;;;;6251065;22;19934;-85
2022/04/03 10:11:37;;;;;;;;;;;7.50;80.10;;;;;;6251010;22;19957;-85
2022/04/03 10:14:06;;;;;;;;;;;7.60;79.90;;;;;;6251228;22;19960;-85
2022/04/03 10:16:41;;;;;;;;;;;7.60;79.10;;;;;;6250720;22;20237;-86
2022/04/03 10:19:06;;;;;;;;;;;7.70;78.00;;;;;;6251388;22;19903;-86
2022/04/03 10:21:54;;;;;;;;;;;7.80;77.10;;;;;;6250281;22;20336;-86
2022/04/03 10:24:23;;;;;;;;;;;7.80;77.60;;;;;;6251539;22;20310;-86
2022/04/03 10:27:19;;;;;;;;;;;7.90;77.30;;;;;;6250619;22;19907;-85
2022/04/03 10:29:52;;;;;;;;;;;7.90;77.40;;;;;;6218567;22;19907;-85
2022/04/03 10:32:27;;;;;;;;;;;7.90;77.10;;;;;;6251353;22;20256;-85
2022/04/03 10:34:55;;;;;;;;;;;7.80;76.60;;;;;;6249752;22;19903;-85
2022/04/03 10:37:27;;;;;;;;;;;7.80;76.20;;;;;;6250532;22;19918;-85
2022/04/03 10:39:54;;;;;;;;;;;7.70;76.30;;;;;;6250587;22;20233;-84
2022/04/03 10:42:30;;;;;;;;;;;7.70;75.90;;;;;;6250574;22;19910;-84
2022/04/03 10:45:11;;;;;;;;;;;7.60;75.50;;;;;;6250307;22;19919;-84
2022/04/03 10:47:37;;;;;;;;;;;7.60;75.60;;;;;;6250577;22;19907;-85
2022/04/03 10:50:05;;;;;;;;;;;7.60;76.00;;;;;;6250163;22;20314;-86
2022/04/03 10:52:48;;;;;;;;;;;7.60;76.10;;;;;;6250930;22;20309;-87
2022/04/03 10:55:20;;;;;;;;;;;7.60;76.10;;;;;;6250855;22;19903;-86
2022/04/03 10:57:46;;;;;;;;;;;7.60;75.80;;;;;;6278023;22;19961;-87
2022/04/03 11:00:17;;;;;;;;;;;7.70;75.90;;;;;;6251290;22;19903;-85
2022/04/03 11:02:49;;;;;;;;;;;7.70;75.40;;;;;;6251274;22;19903;-86
2022/04/03 11:05:24;;;;;;;;;;;7.70;75.70;;;;;;6251742;22;19903;-86
2022/04/03 11:08:00;;;;;;;;;;;7.80;75.20;;;;;;6259969;22;19935;-88
2022/04/03 11:10:52;;;;;;;;;;;7.70;75.50;;;;;;6278697;22;19938;-86
2022/04/03 11:13:23;;;;;;;;;;;7.80;75.70;;;;;;6278728;22;19898;-85
2022/04/03 11:15:48;;;;;;;;;;;7.80;75.60;;;;;;6277738;22;19918;-85
2022/04/03 11:18:32;;;;;;;;;;;7.90;76.30;;;;;;6263099;22;19911;-85
2022/04/03 11:21:19;;;;;;;;;;;7.90;75.60;;;;;;6251868;22;19903;-86
2022/04/03 11:24:09;;;;;;;;;;;7.80;75.40;;;;;;6278270;22;19954;-85
2022/04/03 11:26:35;;;;;;;;;;;7.80;75.40;;;;;;6249997;22;19904;-85
2022/04/03 11:29:02;;;;;;;;;;;7.80;75.50;;;;;;6250920;22;19907;-86
2022/04/03 11:31:33;;;;;;;;;;;7.80;75.40;;;;;;6250253;22;19903;-86
2022/04/03 11:34:06;;;;;;;;;;;7.80;75.60;;;;;;6250673;22;20238;-85
2022/04/03 11:36:32;;;;;;;;;;;7.80;75.60;;;;;;6249986;22;19953;-86
2022/04/03 11:39:19;;;;;;;;;;;7.80;75.60;;;;;;6250370;22;19903;-85
2022/04/03 11:41:52;;;;;;;;;;;7.80;75.60;;;;;;6275707;22;20309;-86
2022/04/03 11:44:18;;;;;;;;;;;7.90;75.70;;;;;;6250002;22;19904;-86
2022/04/03 11:46:51;;;;;;;;;;;7.90;75.60;;;;;;6249859;22;19904;-85
2022/04/03 11:49:17;;;;;;;;;;;7.80;75.20;;;;;;6250817;22;19911;-85
2022/04/03 11:51:46;;;;;;;;;;;7.90;75.50;;;;;;6249870;22;19907;-86
2022/04/03 11:54:16;;;;;;;;;;;7.90;75.60;;;;;;6250432;22;19903;-86
2022/04/03 11:56:44;;;;;;;;;;;7.90;75.40;;;;;;6249460;22;20347;-88
2022/04/03 11:59:13;;;;;;;;;;;7.90;75.40;;;;;;6250708;22;19909;-86
2022/04/03 12:01:55;;;;;;;;;;;8.00;75.60;;;;;;6250074;22;19914;-86
2022/04/03 12:04:23;;;;;;;;;;;8.10;75.70;;;;;;6250706;22;19952;-86
2022/04/03 12:07:01;;;;;;;;;;;8.20;75.60;;;;;;6249264;22;19910;-86
2022/04/03 12:09:37;;;;;;;;;;;8.20;75.80;;;;;;6250032;22;19910;-86
2022/04/03 12:12:04;;;;;;;;;;;8.20;76.40;;;;;;6249699;22;20332;-86
2022/04/03 12:14:31;;;;;;;;;;;8.20;75.80;;;;;;6249873;22;19912;-86
2022/04/03 12:17:00;;;;;;;;;;;8.20;75.60;;;;;;6249886;22;19911;-86
2022/04/03 12:19:30;;;;;;;;;;;8.10;75.50;;;;;;6249117;22;19904;-86
2022/04/03 12:21:56;;;;;;;;;;;8.10;75.70;;;;;;6250381;22;19969;-86
2022/04/03 12:24:25;;;;;;;;;;;8.10;76.40;;;;;;6250439;22;20281;-85
2022/04/03 12:26:56;;;;;;;;;;;8.00;75.80;;;;;;6250712;22;19903;-86
2022/04/03 12:29:27;;;;;;;;;;;8.00;75.90;;;;;;6250247;22;19907;-85
2022/04/03 12:32:11;;;;;;;;;;;8.00;76.00;;;;;;6250838;22;19909;-84
2022/04/03 12:34:40;;;;;;;;;;;8.00;76.30;;;;;;6250892;22;19935;-84
2022/04/03 12:37:09;;;;;;;;;;;8.00;76.80;;;;;;6250392;22;19947;-85
2022/04/03 12:39:37;;;;;;;;;;;7.90;77.10;;;;;;6254803;22;19903;-84
2022/04/03 12:42:09;;;;;;;;;;;8.00;77.40;;;;;;6278040;22;19892;-85
2022/04/03 12:44:44;;;;;;;;;;;8.00;77.50;;;;;;6278422;22;19914;-84
2022/04/03 12:47:14;;;;;;;;;;;8.00;77.50;;;;;;6278567;22;19925;-85
2022/04/03 12:49:44;;;;;;;;;;;8.00;77.70;;;;;;6266098;22;19961;-85
2022/04/03 12:52:09;;;;;;;;;;;8.00;77.80;;;;;;6251001;22;19914;-85
2022/04/03 12:54:45;;;;;;;;;;;8.10;78.50;;;;;;6250825;22;19929;-86
2022/04/03 13:00:27;;;;;;;;;;;8.10;78.10;;;;;;6185094;23;19912;-84
2022/04/03 13:02:54;;;;;;;;;;;8.00;77.90;;;;;;6160303;23;19979;-85
2022/04/03 13:05:25;;;;;;;;;;;8.00;78.10;;;;;;6202702;22;19907;-85
2022/04/03 13:07:55;;;;;;;;;;;8.00;78.40;;;;;;6226364;22;19956;-86
2022/04/03 13:10:21;;;;;;;;;;;8.00;78.30;;;;;;6252481;22;19947;-85
2022/04/03 13:12:53;;;;;;;;;;;8.00;77.80;;;;;;6250675;22;20328;-86
2022/04/03 13:15:19;;;;;;;;;;;8.00;77.70;;;;;;6251979;22;19910;-85
2022/04/03 13:17:48;;;;;;;;;;;8.00;77.50;;;;;;6251682;22;20014;-84
2022/04/03 13:20:14;;;;;;;;;;;7.90;77.10;;;;;;6250941;22;19903;-85
2022/04/03 13:22:39;;;;;;;;;;;7.90;77.10;;;;;;6225866;22;19990;-85
2022/04/03 13:25:08;;;;;;;;;;;8.00;76.60;;;;;;6251385;22;19903;-85
2022/04/03 13:27:41;;;;;;;;;;;8.00;76.40;;;;;;6226297;22;19907;-85
2022/04/03 13:30:09;;;;;;;;;;;8.00;75.90;;;;;;6250940;22;20314;-85
2022/04/03 13:32:37;;;;;;;;;;;8.00;75.40;;;;;;6226620;22;20233;-86
2022/04/03 13:35:02;;;;;;;;;;;8.00;75.70;;;;;;6251861;22;19911;-86
2022/04/03 13:37:30;;;;;;;;;;;8.10;76.10;;;;;;6251331;22;19911;-85
2022/04/03 13:39:57;;;;;;;;;;;8.10;76.20;;;;;;6226142;22;19938;-85
2022/04/03 13:42:22;;;;;;;;;;;8.10;76.40;;;;;;6251420;22;19904;-86
2022/04/03 13:44:51;;;;;;;;;;;8.10;76.50;;;;;;6251497;22;19915;-86
2022/04/03 13:47:26;;;;;;;;;;;8.20;76.50;;;;;;6251964;22;19903;-92
2022/04/03 13:49:51;;;;;;;;;;;8.20;76.10;;;;;;6251630;22;19939;-86
2022/04/03 13:52:17;;;;;;;;;;;8.20;75.30;;;;;;6278335;22;19974;-86
2022/04/03 13:54:43;;;;;;;;;;;8.20;75.60;;;;;;6251527;22;19957;-85
2022/04/03 13:57:09;;;;;;;;;;;8.20;76.10;;;;;;6251642;22;20406;-85
2022/04/03 13:59:34;;;;;;;;;;;8.20;76.70;;;;;;6251586;22;19978;-86
2022/04/03 14:02:00;;;;;;;;;;;8.20;78.00;;;;;;6251237;22;19929;-85
2022/04/03 14:04:26;;;;;;;;;;;8.20;78.40;;;;;;6251111;22;20232;-85
2022/04/03 14:06:51;;;;;;;;;;;8.10;78.50;;;;;;6250374;22;20264;-85
2022/04/03 14:09:20;;;;;;;;;;;8.10;78.80;;;;;;6225911;22;19913;-85
2022/04/03 14:11:48;;;;;;;;;;;8.10;79.10;;;;;;6254148;22;19903;-85
2022/04/03 14:14:16;;;;;;;;;;;8.20;78.90;;;;;;6253390;22;19907;-86
2022/04/03 14:16:42;;;;;;;;;;;8.30;79.10;;;;;;6253696;22;19926;-84
2022/04/03 14:19:07;;;;;;;;;;;8.40;79.00;;;;;;6279166;22;19907;-87
2022/04/03 14:21:35;;;;;;;;;;;8.50;78.00;;;;;;6242063;22;19983;-84
2022/04/03 14:24:11;;;;;;;;;;;8.60;77.90;;;;;;6252371;22;19911;-88
2022/04/03 14:26:46;;;;;;;;;;;8.60;77.60;;;;;;6252105;22;20275;-87
2022/04/03 14:29:14;;;;;;;;;;;8.70;77.50;;;;;;6251874;22;19903;-88
2022/04/03 14:31:59;;;;;;;;;;;8.70;77.50;;;;;;6225974;22;19989;-87
2022/04/03 14:34:25;;;;;;;;;;;8.70;77.60;;;;;;6251267;22;19903;-86
2022/04/03 14:37:01;;;;;;;;;;;8.80;77.60;;;;;;6250185;22;19917;-87
2022/04/03 14:39:31;;;;;;;;;;;8.80;77.60;;;;;;6250524;22;19911;-87
2022/04/03 14:42:00;;;;;;;;;;;8.90;77.60;;;;;;6250964;22;19925;-85
2022/04/03 14:44:26;;;;;;;;;;;8.90;77.20;;;;;;6251313;22;19915;-86
2022/04/03 14:46:54;;;;;;;;;;;8.90;76.80;;;;;;6250966;22;20293;-86
2022/04/03 14:49:22;;;;;;;;;;;8.90;76.80;;;;;;6226088;22;20223;-86
2022/04/03 14:51:48;;;;;;;;;;;9.00;77.50;;;;;;6250914;22;19935;-86